sensor_id;sensor_type;location;lat;lon;timestamp;P1;durP1;ratioP1;P2;durP2;ratioP2
6249;SDS011;3158;52.148;11.568;2023-08-08T00:00:44;0.20;;;0.20;;
6249;SDS011;3158;52.148;11.568;2023-08-08T00:05:45;2.35;;;0.50;;
6249;SDS011;3158;52.148;11.568;2023-08-08T00:10:46;0.22;;;0.20;;
6249;SDS011;3158;52.148;11.568;2023-08-08T00:15:47;1.77;;;0.30;;
6249;SDS011;3158;52.148;11.568;2023-08-08T00:20:48;1.02;;;0.57;;
6249;SDS011;3158;52.148;11.568;2023-08-08T00:25:49;1.17;;;0.52;;
6249;SDS011;3158;52.148;11.568;2023-08-08T00:30:51;2.28;;;0.38;;
6249;SDS011;3158;52.148;11.568;2023-08-08T00:35:52;1.08;;;0.30;;
6249;SDS011;3158;52.148;11.568;2023-08-08T00:40:53;0.60;;;0.50;;
6249;SDS011;3158;52.148;11.568;2023-08-08T00:45:56;0.45;;;0.40;;
6249;SDS011;3158;52.148;11.568;2023-08-08T00:50:57;0.20;;;0.20;;
6249;SDS011;3158;52.148;11.568;2023-08-08T00:55:59;0.30;;;0.30;;
6249;SDS011;3158;52.148;11.568;2023-08-08T01:01:01;0.40;;;0.30;;
6249;SDS011;3158;52.148;11.568;2023-08-08T01:06:03;0.70;;;0.32;;
6249;SDS011;3158;52.148;11.568;2023-08-08T01:11:06;3.50;;;0.50;;
6249;SDS011;3158;52.148;11.568;2023-08-08T01:16:08;0.20;;;0.20;;
6249;SDS011;3158;52.148;11.568;2023-08-08T01:21:10;0.20;;;0.20;;
6249;SDS011;3158;52.148;11.568;2023-08-08T01:26:11;0.50;;;0.30;;
6249;SDS011;3158;52.148;11.568;2023-08-08T01:31:13;2.05;;;0.40;;
6249;SDS011;3158;52.148;11.568;2023-08-08T01:36:22;0.55;;;0.50;;
6249;SDS011;3158;52.148;11.568;2023-08-08T01:41:26;0.30;;;0.30;;
6249;SDS011;3158;52.148;11.568;2023-08-08T01:46:27;3.28;;;0.68;;
6249;SDS011;3158;52.148;11.568;2023-08-08T01:51:29;0.65;;;0.30;;
6249;SDS011;3158;52.148;11.568;2023-08-08T01:56:30;0.30;;;0.30;;
6249;SDS011;3158;52.148;11.568;2023-08-08T02:01:31;0.40;;;0.40;;
6249;SDS011;3158;52.148;11.568;2023-08-08T02:06:32;0.30;;;0.30;;
6249;SDS011;3158;52.148;11.568;2023-08-08T02:11:33;0.95;;;0.40;;
6249;SDS011;3158;52.148;11.568;2023-08-08T02:16:34;0.40;;;0.40;;
6249;SDS011;3158;52.148;11.568;2023-08-08T02:21:35;0.30;;;0.30;;
6249;SDS011;3158;52.148;11.568;2023-08-08T02:26:36;0.90;;;0.90;;
6249;SDS011;3158;52.148;11.568;2023-08-08T02:31:42;1.20;;;0.80;;
6249;SDS011;3158;52.148;11.568;2023-08-08T02:36:43;0.52;;;0.40;;
6249;SDS011;3158;52.148;11.568;2023-08-08T02:41:44;0.35;;;0.35;;
6249;SDS011;3158;52.148;11.568;2023-08-08T02:46:46;1.17;;;0.30;;
6249;SDS011;3158;52.148;11.568;2023-08-08T02:51:47;0.30;;;0.30;;
6249;SDS011;3158;52.148;11.568;2023-08-08T02:56:49;2.72;;;0.50;;
6249;SDS011;3158;52.148;11.568;2023-08-08T03:01:51;0.35;;;0.35;;
6249;SDS011;3158;52.148;11.568;2023-08-08T03:06:52;0.35;;;0.35;;
6249;SDS011;3158;52.148;11.568;2023-08-08T03:11:54;1.08;;;0.45;;
6249;SDS011;3158;52.148;11.568;2023-08-08T03:16:56;0.40;;;0.40;;
6249;SDS011;3158;52.148;11.568;2023-08-08T03:21:57;0.32;;;0.32;;
6249;SDS011;3158;52.148;11.568;2023-08-08T03:26:59;0.30;;;0.30;;
6249;SDS011;3158;52.148;11.568;2023-08-08T03:32:00;1.40;;;0.60;;
6249;SDS011;3158;52.148;11.568;2023-08-08T03:37:05;4.38;;;0.45;;
6249;SDS011;3158;52.148;11.568;2023-08-08T03:42:06;0.55;;;0.55;;
6249;SDS011;3158;52.148;11.568;2023-08-08T03:47:08;0.40;;;0.40;;
6249;SDS011;3158;52.148;11.568;2023-08-08T03:52:09;2.05;;;0.47;;
6249;SDS011;3158;52.148;11.568;2023-08-08T03:57:10;0.40;;;0.40;;
6249;SDS011;3158;52.148;11.568;2023-08-08T04:02:11;0.55;;;0.55;;
6249;SDS011;3158;52.148;11.568;2023-08-08T04:07:12;0.30;;;0.30;;
6249;SDS011;3158;52.148;11.568;2023-08-08T04:12:14;2.10;;;0.40;;
6249;SDS011;3158;52.148;11.568;2023-08-08T04:17:15;1.65;;;0.60;;
6249;SDS011;3158;52.148;11.568;2023-08-08T04:22:16;1.10;;;0.40;;
6249;SDS011;3158;52.148;11.568;2023-08-08T04:27:17;0.60;;;0.60;;
6249;SDS011;3158;52.148;11.568;2023-08-08T04:32:18;1.75;;;0.73;;
6249;SDS011;3158;52.148;11.568;2023-08-08T04:37:20;1.95;;;0.40;;
6249;SDS011;3158;52.148;11.568;2023-08-08T04:42:21;1.83;;;0.45;;
6249;SDS011;3158;52.148;11.568;2023-08-08T04:47:22;1.02;;;0.60;;
6249;SDS011;3158;52.148;11.568;2023-08-08T04:52:23;0.43;;;0.43;;
6249;SDS011;3158;52.148;11.568;2023-08-08T04:57:24;0.35;;;0.35;;
6249;SDS011;3158;52.148;11.568;2023-08-08T05:02:25;0.50;;;0.50;;
6249;SDS011;3158;52.148;11.568;2023-08-08T05:07:26;0.50;;;0.50;;
6249;SDS011;3158;52.148;11.568;2023-08-08T05:12:27;0.82;;;0.50;;
6249;SDS011;3158;52.148;11.568;2023-08-08T05:17:31;0.47;;;0.45;;
6249;SDS011;3158;52.148;11.568;2023-08-08T05:22:32;0.50;;;0.50;;
6249;SDS011;3158;52.148;11.568;2023-08-08T05:27:33;0.90;;;0.32;;
6249;SDS011;3158;52.148;11.568;2023-08-08T05:32:35;0.68;;;0.68;;
6249;SDS011;3158;52.148;11.568;2023-08-08T05:37:36;0.40;;;0.40;;
6249;SDS011;3158;52.148;11.568;2023-08-08T05:42:37;0.57;;;0.57;;
6249;SDS011;3158;52.148;11.568;2023-08-08T05:47:39;0.50;;;0.50;;
6249;SDS011;3158;52.148;11.568;2023-08-08T05:52:40;2.65;;;0.55;;
6249;SDS011;3158;52.148;11.568;2023-08-08T05:57:41;0.70;;;0.40;;
6249;SDS011;3158;52.148;11.568;2023-08-08T06:02:42;0.43;;;0.43;;
6249;SDS011;3158;52.148;11.568;2023-08-08T06:07:43;1.98;;;0.40;;
6249;SDS011;3158;52.148;11.568;2023-08-08T06:12:44;0.35;;;0.35;;
6249;SDS011;3158;52.148;11.568;2023-08-08T06:17:45;0.40;;;0.40;;
6249;SDS011;3158;52.148;11.568;2023-08-08T06:22:46;0.38;;;0.38;;
6249;SDS011;3158;52.148;11.568;2023-08-08T06:27:47;2.10;;;0.60;;
6249;SDS011;3158;52.148;11.568;2023-08-08T06:32:49;0.38;;;0.38;;
6249;SDS011;3158;52.148;11.568;2023-08-08T06:37:50;0.40;;;0.40;;
6249;SDS011;3158;52.148;11.568;2023-08-08T06:42:51;0.30;;;0.30;;
6249;SDS011;3158;52.148;11.568;2023-08-08T06:47:52;0.40;;;0.40;;
6249;SDS011;3158;52.148;11.568;2023-08-08T06:52:53;0.65;;;0.50;;
6249;SDS011;3158;52.148;11.568;2023-08-08T06:57:54;0.40;;;0.40;;
6249;SDS011;3158;52.148;11.568;2023-08-08T07:02:56;1.20;;;0.40;;
6249;SDS011;3158;52.148;11.568;2023-08-08T07:07:57;0.50;;;0.50;;
6249;SDS011;3158;52.148;11.568;2023-08-08T07:12:58;0.85;;;0.85;;
6249;SDS011;3158;52.148;11.568;2023-08-08T07:17:59;0.50;;;0.50;;
6249;SDS011;3158;52.148;11.568;2023-08-08T07:23:00;0.60;;;0.60;;
6249;SDS011;3158;52.148;11.568;2023-08-08T07:28:01;0.60;;;0.60;;
6249;SDS011;3158;52.148;11.568;2023-08-08T07:33:05;0.47;;;0.47;;
6249;SDS011;3158;52.148;11.568;2023-08-08T07:38:08;0.55;;;0.47;;
6249;SDS011;3158;52.148;11.568;2023-08-08T07:43:09;1.23;;;0.55;;
6249;SDS011;3158;52.148;11.568;2023-08-08T07:48:11;0.60;;;0.60;;
6249;SDS011;3158;52.148;11.568;2023-08-08T07:53:12;0.75;;;0.75;;
6249;SDS011;3158;52.148;11.568;2023-08-08T07:58:13;0.90;;;0.90;;
6249;SDS011;3158;52.148;11.568;2023-08-08T08:03:14;0.95;;;0.60;;
6249;SDS011;3158;52.148;11.568;2023-08-08T08:08:15;1.05;;;0.50;;
6249;SDS011;3158;52.148;11.568;2023-08-08T08:13:16;3.20;;;0.85;;
6249;SDS011;3158;52.148;11.568;2023-08-08T08:18:17;0.47;;;0.47;;
6249;SDS011;3158;52.148;11.568;2023-08-08T08:23:20;0.50;;;0.50;;
6249;SDS011;3158;52.148;11.568;2023-08-08T08:28:21;3.63;;;0.93;;
6249;SDS011;3158;52.148;11.568;2023-08-08T08:33:22;0.68;;;0.68;;
6249;SDS011;3158;52.148;11.568;2023-08-08T08:38:23;2.85;;;0.70;;
6249;SDS011;3158;52.148;11.568;2023-08-08T08:43:25;0.50;;;0.50;;
6249;SDS011;3158;52.148;11.568;2023-08-08T08:48:26;0.85;;;0.52;;
6249;SDS011;3158;52.148;11.568;2023-08-08T08:53:28;3.47;;;0.50;;
6249;SDS011;3158;52.148;11.568;2023-08-08T08:58:29;0.52;;;0.52;;
6249;SDS011;3158;52.148;11.568;2023-08-08T09:03:30;0.77;;;0.77;;
6249;SDS011;3158;52.148;11.568;2023-08-08T09:08:31;3.15;;;0.50;;
6249;SDS011;3158;52.148;11.568;2023-08-08T09:13:36;0.50;;;0.50;;
6249;SDS011;3158;52.148;11.568;2023-08-08T09:18:38;0.52;;;0.40;;
6249;SDS011;3158;52.148;11.568;2023-08-08T09:23:42;1.92;;;0.65;;
6249;SDS011;3158;52.148;11.568;2023-08-08T09:28:44;0.73;;;0.57;;
6249;SDS011;3158;52.148;11.568;2023-08-08T09:33:45;0.45;;;0.45;;
6249;SDS011;3158;52.148;11.568;2023-08-08T09:38:49;0.50;;;0.50;;
6249;SDS011;3158;52.148;11.568;2023-08-08T09:43:50;3.03;;;0.80;;
6249;SDS011;3158;52.148;11.568;2023-08-08T09:48:52;1.48;;;0.55;;
6249;SDS011;3158;52.148;11.568;2023-08-08T09:53:53;3.50;;;0.40;;
6249;SDS011;3158;52.148;11.568;2023-08-08T09:58:55;1.50;;;0.80;;
6249;SDS011;3158;52.148;11.568;2023-08-08T10:04:00;0.40;;;0.40;;
6249;SDS011;3158;52.148;11.568;2023-08-08T10:09:03;0.55;;;0.55;;
6249;SDS011;3158;52.148;11.568;2023-08-08T10:14:04;0.63;;;0.63;;
6249;SDS011;3158;52.148;11.568;2023-08-08T10:19:06;4.10;;;0.70;;
6249;SDS011;3158;52.148;11.568;2023-08-08T10:24:08;3.00;;;0.73;;
6249;SDS011;3158;52.148;11.568;2023-08-08T10:29:17;0.40;;;0.40;;
6249;SDS011;3158;52.148;11.568;2023-08-08T10:34:19;2.42;;;0.60;;
6249;SDS011;3158;52.148;11.568;2023-08-08T10:39:24;0.50;;;0.50;;
6249;SDS011;3158;52.148;11.568;2023-08-08T10:44:25;0.90;;;0.65;;
6249;SDS011;3158;52.148;11.568;2023-08-08T10:49:27;0.50;;;0.50;;
6249;SDS011;3158;52.148;11.568;2023-08-08T10:54:28;2.40;;;0.60;;
6249;SDS011;3158;52.148;11.568;2023-08-08T10:59:37;0.40;;;0.40;;
6249;SDS011;3158;52.148;11.568;2023-08-08T11:04:39;0.93;;;0.70;;
6249;SDS011;3158;52.148;11.568;2023-08-08T11:09:42;2.17;;;0.80;;
6249;SDS011;3158;52.148;11.568;2023-08-08T11:14:43;0.60;;;0.60;;
6249;SDS011;3158;52.148;11.568;2023-08-08T11:19:44;2.20;;;0.65;;
6249;SDS011;3158;52.148;11.568;2023-08-08T11:24:45;0.60;;;0.60;;
6249;SDS011;3158;52.148;11.568;2023-08-08T11:29:49;0.75;;;0.75;;
6249;SDS011;3158;52.148;11.568;2023-08-08T11:34:50;1.23;;;0.75;;
6249;SDS011;3158;52.148;11.568;2023-08-08T11:39:52;1.17;;;0.90;;
6249;SDS011;3158;52.148;11.568;2023-08-08T11:44:53;1.30;;;0.98;;
6249;SDS011;3158;52.148;11.568;2023-08-08T11:49:54;3.30;;;0.73;;
6249;SDS011;3158;52.148;11.568;2023-08-08T11:54:55;2.20;;;0.93;;
6249;SDS011;3158;52.148;11.568;2023-08-08T11:59:56;0.80;;;0.80;;
6249;SDS011;3158;52.148;11.568;2023-08-08T12:05:03;0.95;;;0.60;;
6249;SDS011;3158;52.148;11.568;2023-08-08T12:10:05;0.65;;;0.60;;
6249;SDS011;3158;52.148;11.568;2023-08-08T12:15:06;0.60;;;0.55;;
6249;SDS011;3158;52.148;11.568;2023-08-08T12:20:08;0.57;;;0.57;;
6249;SDS011;3158;52.148;11.568;2023-08-08T12:25:10;2.80;;;0.68;;
6249;SDS011;3158;52.148;11.568;2023-08-08T12:30:11;0.50;;;0.50;;
6249;SDS011;3158;52.148;11.568;2023-08-08T12:35:12;3.00;;;0.80;;
6249;SDS011;3158;52.148;11.568;2023-08-08T12:40:15;0.60;;;0.60;;
6249;SDS011;3158;52.148;11.568;2023-08-08T12:45:16;0.60;;;0.60;;
6249;SDS011;3158;52.148;11.568;2023-08-08T12:50:18;0.60;;;0.60;;
6249;SDS011;3158;52.148;11.568;2023-08-08T12:55:19;2.15;;;0.70;;
6249;SDS011;3158;52.148;11.568;2023-08-08T13:00:20;0.60;;;0.60;;
6249;SDS011;3158;52.148;11.568;2023-08-08T13:05:22;1.33;;;0.55;;
6249;SDS011;3158;52.148;11.568;2023-08-08T13:10:23;1.88;;;0.50;;
6249;SDS011;3158;52.148;11.568;2023-08-08T13:15:24;1.05;;;0.50;;
6249;SDS011;3158;52.148;11.568;2023-08-08T13:20:25;0.50;;;0.50;;
6249;SDS011;3158;52.148;11.568;2023-08-08T13:25:26;1.10;;;0.50;;
6249;SDS011;3158;52.148;11.568;2023-08-08T13:30:27;0.43;;;0.43;;
6249;SDS011;3158;52.148;11.568;2023-08-08T13:35:29;0.50;;;0.50;;
6249;SDS011;3158;52.148;11.568;2023-08-08T13:40:30;2.45;;;0.70;;
6249;SDS011;3158;52.148;11.568;2023-08-08T13:45:31;2.85;;;0.60;;
6249;SDS011;3158;52.148;11.568;2023-08-08T13:50:32;1.17;;;0.55;;
6249;SDS011;3158;52.148;11.568;2023-08-08T13:55:33;1.85;;;0.40;;
6249;SDS011;3158;52.148;11.568;2023-08-08T14:00:39;0.50;;;0.50;;
6249;SDS011;3158;52.148;11.568;2023-08-08T14:05:42;0.50;;;0.50;;
6249;SDS011;3158;52.148;11.568;2023-08-08T14:10:43;0.60;;;0.40;;
6249;SDS011;3158;52.148;11.568;2023-08-08T14:15:45;0.32;;;0.32;;
6249;SDS011;3158;52.148;11.568;2023-08-08T14:20:46;0.20;;;0.20;;
6249;SDS011;3158;52.148;11.568;2023-08-08T14:25:47;0.38;;;0.38;;
6249;SDS011;3158;52.148;11.568;2023-08-08T14:30:48;0.47;;;0.47;;
6249;SDS011;3158;52.148;11.568;2023-08-08T14:35:49;1.13;;;0.40;;
6249;SDS011;3158;52.148;11.568;2023-08-08T14:40:51;0.28;;;0.28;;
6249;SDS011;3158;52.148;11.568;2023-08-08T14:45:56;0.40;;;0.40;;
6249;SDS011;3158;52.148;11.568;2023-08-08T14:50:59;0.75;;;0.30;;
6249;SDS011;3158;52.148;11.568;2023-08-08T14:56:00;3.00;;;0.30;;
6249;SDS011;3158;52.148;11.568;2023-08-08T15:01:01;0.57;;;0.30;;
6249;SDS011;3158;52.148;11.568;2023-08-08T15:06:02;0.68;;;0.30;;
6249;SDS011;3158;52.148;11.568;2023-08-08T15:11:04;1.10;;;0.20;;
6249;SDS011;3158;52.148;11.568;2023-08-08T15:16:05;0.52;;;0.20;;
6249;SDS011;3158;52.148;11.568;2023-08-08T15:21:07;2.55;;;0.20;;
6249;SDS011;3158;52.148;11.568;2023-08-08T15:26:08;0.17;;;0.17;;
6249;SDS011;3158;52.148;11.568;2023-08-08T15:31:09;0.43;;;0.20;;
6249;SDS011;3158;52.148;11.568;2023-08-08T15:36:10;0.10;;;0.10;;
6249;SDS011;3158;52.148;11.568;2023-08-08T15:41:11;0.90;;;0.20;;
6249;SDS011;3158;52.148;11.568;2023-08-08T15:46:12;0.20;;;0.20;;
6249;SDS011;3158;52.148;11.568;2023-08-08T15:51:13;0.73;;;0.28;;
6249;SDS011;3158;52.148;11.568;2023-08-08T15:56:14;0.30;;;0.30;;
6249;SDS011;3158;52.148;11.568;2023-08-08T16:01:15;0.20;;;0.20;;
6249;SDS011;3158;52.148;11.568;2023-08-08T16:06:17;0.20;;;0.20;;
6249;SDS011;3158;52.148;11.568;2023-08-08T16:11:18;0.68;;;0.20;;
6249;SDS011;3158;52.148;11.568;2023-08-08T16:16:19;2.42;;;0.30;;
6249;SDS011;3158;52.148;11.568;2023-08-08T16:21:20;0.20;;;0.20;;
6249;SDS011;3158;52.148;11.568;2023-08-08T16:26:21;0.25;;;0.20;;
6249;SDS011;3158;52.148;11.568;2023-08-08T16:31:22;0.25;;;0.25;;
6249;SDS011;3158;52.148;11.568;2023-08-08T16:36:23;0.10;;;0.10;;
6249;SDS011;3158;52.148;11.568;2023-08-08T16:41:24;2.13;;;0.20;;
6249;SDS011;3158;52.148;11.568;2023-08-08T16:46:25;1.65;;;0.20;;
6249;SDS011;3158;52.148;11.568;2023-08-08T16:51:27;0.30;;;0.30;;
6249;SDS011;3158;52.148;11.568;2023-08-08T16:56:28;0.20;;;0.20;;
6249;SDS011;3158;52.148;11.568;2023-08-08T17:01:30;0.20;;;0.20;;
6249;SDS011;3158;52.148;11.568;2023-08-08T17:06:31;1.55;;;0.20;;
6249;SDS011;3158;52.148;11.568;2023-08-08T17:11:32;0.10;;;0.10;;
6249;SDS011;3158;52.148;11.568;2023-08-08T17:16:33;2.10;;;0.32;;
6249;SDS011;3158;52.148;11.568;2023-08-08T17:21:34;0.10;;;0.10;;
6249;SDS011;3158;52.148;11.568;2023-08-08T17:26:36;0.40;;;0.30;;
6249;SDS011;3158;52.148;11.568;2023-08-08T17:31:37;0.47;;;0.10;;
6249;SDS011;3158;52.148;11.568;2023-08-08T17:36:38;0.10;;;0.10;;
6249;SDS011;3158;52.148;11.568;2023-08-08T17:41:39;0.50;;;0.20;;
6249;SDS011;3158;52.148;11.568;2023-08-08T17:46:41;0.57;;;0.10;;
6249;SDS011;3158;52.148;11.568;2023-08-08T17:51:42;0.10;;;0.10;;
6249;SDS011;3158;52.148;11.568;2023-08-08T17:56:43;0.30;;;0.30;;
6249;SDS011;3158;52.148;11.568;2023-08-08T18:01:44;0.13;;;0.13;;
6249;SDS011;3158;52.148;11.568;2023-08-08T18:06:45;0.20;;;0.20;;
6249;SDS011;3158;52.148;11.568;2023-08-08T18:11:47;0.47;;;0.10;;
6249;SDS011;3158;52.148;11.568;2023-08-08T18:16:48;0.20;;;0.20;;
6249;SDS011;3158;52.148;11.568;2023-08-08T18:21:49;0.20;;;0.20;;
6249;SDS011;3158;52.148;11.568;2023-08-08T18:26:50;0.10;;;0.10;;
6249;SDS011;3158;52.148;11.568;2023-08-08T18:31:52;0.30;;;0.30;;
6249;SDS011;3158;52.148;11.568;2023-08-08T18:36:53;0.82;;;0.20;;
6249;SDS011;3158;52.148;11.568;2023-08-08T18:41:54;0.52;;;0.40;;
6249;SDS011;3158;52.148;11.568;2023-08-08T18:46:55;0.28;;;0.28;;
6249;SDS011;3158;52.148;11.568;2023-08-08T18:51:56;0.65;;;0.38;;
6249;SDS011;3158;52.148;11.568;2023-08-08T18:56:57;1.08;;;0.20;;
6249;SDS011;3158;52.148;11.568;2023-08-08T19:01:59;1.13;;;0.90;;
6249;SDS011;3158;52.148;11.568;2023-08-08T19:07:00;0.45;;;0.45;;
6249;SDS011;3158;52.148;11.568;2023-08-08T19:12:01;2.78;;;0.30;;
6249;SDS011;3158;52.148;11.568;2023-08-08T19:17:02;0.32;;;0.32;;
6249;SDS011;3158;52.148;11.568;2023-08-08T19:22:03;2.53;;;1.13;;
6249;SDS011;3158;52.148;11.568;2023-08-08T19:27:04;1.05;;;0.75;;
6249;SDS011;3158;52.148;11.568;2023-08-08T19:32:05;0.82;;;0.70;;
6249;SDS011;3158;52.148;11.568;2023-08-08T19:37:07;0.30;;;0.28;;
6249;SDS011;3158;52.148;11.568;2023-08-08T19:42:08;0.40;;;0.40;;
6249;SDS011;3158;52.148;11.568;2023-08-08T19:47:09;0.30;;;0.30;;
6249;SDS011;3158;52.148;11.568;2023-08-08T19:52:10;2.08;;;0.43;;
6249;SDS011;3158;52.148;11.568;2023-08-08T19:57:11;0.25;;;0.20;;
6249;SDS011;3158;52.148;11.568;2023-08-08T20:02:12;0.20;;;0.20;;
6249;SDS011;3158;52.148;11.568;2023-08-08T20:07:13;0.20;;;0.20;;
6249;SDS011;3158;52.148;11.568;2023-08-08T20:12:14;0.20;;;0.20;;
6249;SDS011;3158;52.148;11.568;2023-08-08T20:17:16;0.20;;;0.20;;
6249;SDS011;3158;52.148;11.568;2023-08-08T20:22:17;0.10;;;0.10;;
6249;SDS011;3158;52.148;11.568;2023-08-08T20:27:18;0.20;;;0.20;;
6249;SDS011;3158;52.148;11.568;2023-08-08T20:32:19;0.20;;;0.20;;
6249;SDS011;3158;52.148;11.568;2023-08-08T20:37:20;0.43;;;0.20;;
6249;SDS011;3158;52.148;11.568;2023-08-08T20:42:21;0.20;;;0.20;;
6249;SDS011;3158;52.148;11.568;2023-08-08T20:47:23;0.75;;;0.38;;
6249;SDS011;3158;52.148;11.568;2023-08-08T20:52:24;0.40;;;0.40;;
6249;SDS011;3158;52.148;11.568;2023-08-08T20:57:25;0.30;;;0.30;;
6249;SDS011;3158;52.148;11.568;2023-08-08T21:02:26;0.25;;;0.25;;
6249;SDS011;3158;52.148;11.568;2023-08-08T21:07:27;1.17;;;0.20;;
6249;SDS011;3158;52.148;11.568;2023-08-08T21:12:29;0.20;;;0.20;;
6249;SDS011;3158;52.148;11.568;2023-08-08T21:17:30;0.20;;;0.20;;
6249;SDS011;3158;52.148;11.568;2023-08-08T21:22:31;1.45;;;0.50;;
6249;SDS011;3158;52.148;11.568;2023-08-08T21:27:32;0.20;;;0.20;;
6249;SDS011;3158;52.148;11.568;2023-08-08T21:32:34;0.20;;;0.20;;
6249;SDS011;3158;52.148;11.568;2023-08-08T21:37:35;0.20;;;0.20;;
6249;SDS011;3158;52.148;11.568;2023-08-08T21:42:38;1.95;;;0.17;;
6249;SDS011;3158;52.148;11.568;2023-08-08T21:47:39;0.75;;;0.40;;
6249;SDS011;3158;52.148;11.568;2023-08-08T21:52:40;0.28;;;0.28;;
6249;SDS011;3158;52.148;11.568;2023-08-08T21:57:41;0.20;;;0.20;;
6249;SDS011;3158;52.148;11.568;2023-08-08T22:02:42;0.20;;;0.20;;
6249;SDS011;3158;52.148;11.568;2023-08-08T22:07:43;0.30;;;0.30;;
6249;SDS011;3158;52.148;11.568;2023-08-08T22:12:44;0.68;;;0.20;;
6249;SDS011;3158;52.148;11.568;2023-08-08T22:17:45;0.30;;;0.30;;
6249;SDS011;3158;52.148;11.568;2023-08-08T22:22:46;0.20;;;0.20;;
6249;SDS011;3158;52.148;11.568;2023-08-08T22:27:47;0.35;;;0.35;;
6249;SDS011;3158;52.148;11.568;2023-08-08T22:32:49;0.40;;;0.40;;
6249;SDS011;3158;52.148;11.568;2023-08-08T22:37:50;0.35;;;0.35;;
6249;SDS011;3158;52.148;11.568;2023-08-08T22:42:52;0.30;;;0.30;;
6249;SDS011;3158;52.148;11.568;2023-08-08T22:47:53;0.40;;;0.30;;
6249;SDS011;3158;52.148;11.568;2023-08-08T22:52:54;2.38;;;0.30;;
6249;SDS011;3158;52.148;11.568;2023-08-08T22:57:55;0.30;;;0.30;;
6249;SDS011;3158;52.148;11.568;2023-08-08T23:02:56;0.20;;;0.20;;
6249;SDS011;3158;52.148;11.568;2023-08-08T23:07:57;0.20;;;0.20;;
6249;SDS011;3158;52.148;11.568;2023-08-08T23:12:58;0.20;;;0.20;;
6249;SDS011;3158;52.148;11.568;2023-08-08T23:18:00;0.25;;;0.25;;
6249;SDS011;3158;52.148;11.568;2023-08-08T23:23:01;0.20;;;0.20;;
6249;SDS011;3158;52.148;11.568;2023-08-08T23:28:02;0.20;;;0.20;;
6249;SDS011;3158;52.148;11.568;2023-08-08T23:33:03;0.75;;;0.40;;
6249;SDS011;3158;52.148;11.568;2023-08-08T23:38:04;0.20;;;0.20;;
6249;SDS011;3158;52.148;11.568;2023-08-08T23:43:05;0.55;;;0.30;;
6249;SDS011;3158;52.148;11.568;2023-08-08T23:48:06;0.30;;;0.30;;
6249;SDS011;3158;52.148;11.568;2023-08-08T23:53:07;0.22;;;0.20;;
6249;SDS011;3158;52.148;11.568;2023-08-08T23:58:09;0.30;;;0.30;;
